createdAt,value
2022-08-22T00:01:39.549Z,19.20
2022-08-22T00:04:33.473Z,19.20
2022-08-22T00:07:29.523Z,19.10
2022-08-22T00:10:06.441Z,19.10
2022-08-22T00:12:42.790Z,19.20
2022-08-22T00:15:31.579Z,19.30
2022-08-22T00:18:22.744Z,19.40
2022-08-22T00:21:04.737Z,19.40
2022-08-22T00:23:52.532Z,19.30
2022-08-22T00:26:45.595Z,19.20
2022-08-22T00:29:17.571Z,19.10
2022-08-22T00:31:51.454Z,18.90
2022-08-22T00:34:23.942Z,18.90
2022-08-22T00:37:11.285Z,18.80
2022-08-22T00:39:45.747Z,18.80
2022-08-22T00:42:29.106Z,18.70
2022-08-22T00:45:11.202Z,18.80
2022-08-22T00:47:58.719Z,19.00
2022-08-22T00:51:09.170Z,18.90
2022-08-22T00:53:52.710Z,18.80
2022-08-22T00:56:56.429Z,18.70
2022-08-22T00:59:52.362Z,18.70
2022-08-22T01:02:52.566Z,18.70
2022-08-22T01:05:44.426Z,18.70
2022-08-22T01:08:26.413Z,18.70
2022-08-22T01:10:58.704Z,18.70
2022-08-22T01:13:47.223Z,18.70
2022-08-22T01:16:35.842Z,18.70
2022-08-22T01:19:20.617Z,18.90
2022-08-22T01:21:53.173Z,18.90
2022-08-22T01:25:18.316Z,18.90
2022-08-22T01:28:26.654Z,18.90
2022-08-22T01:31:42.395Z,19.00
2022-08-22T01:34:18.251Z,19.20
2022-08-22T01:37:09.935Z,19.10
2022-08-22T01:39:58.553Z,19.30
2022-08-22T01:42:56.027Z,19.30
2022-08-22T01:45:41.491Z,19.40
2022-08-22T01:48:19.724Z,19.40
2022-08-22T01:51:16.343Z,19.30
2022-08-22T01:53:53.180Z,19.10
2022-08-22T01:56:22.626Z,19.10
2022-08-22T01:59:17.726Z,19.00
2022-08-22T02:01:52.421Z,19.00
2022-08-22T02:04:39.224Z,19.10
2022-08-22T02:07:31.850Z,19.20
2022-08-22T02:10:13.778Z,19.10
2022-08-22T02:12:47.470Z,19.20
2022-08-22T02:15:30.958Z,19.10
2022-08-22T02:18:17.373Z,19.10
2022-08-22T02:21:02.467Z,19.00
2022-08-22T02:23:56.599Z,18.90
2022-08-22T02:26:46.798Z,18.80
2022-08-22T02:29:21.605Z,18.80
2022-08-22T02:31:56.965Z,18.80
2022-08-22T02:34:37.132Z,18.70
2022-08-22T02:37:15.528Z,18.70
2022-08-22T02:40:02.364Z,18.70
2022-08-22T02:42:43.197Z,18.60
2022-08-22T02:45:30.219Z,18.50
2022-08-22T02:48:32.449Z,18.50
2022-08-22T02:51:01.404Z,18.40
2022-08-22T02:53:36.859Z,18.40
2022-08-22T02:56:13.032Z,18.30
2022-08-22T02:58:59.187Z,18.40
2022-08-22T03:01:32.264Z,18.30
2022-08-22T03:04:32.347Z,18.20
2022-08-22T03:07:20.541Z,18.10
2022-08-22T03:10:18.305Z,18.00
2022-08-22T03:13:06.628Z,18.00
2022-08-22T03:15:39.254Z,18.00
2022-08-22T03:18:48.480Z,18.10
2022-08-22T03:21:21.667Z,18.20
2022-08-22T03:23:59.502Z,18.20
2022-08-22T03:26:30.097Z,18.10
2022-08-22T03:29:04.203Z,18.00
2022-08-22T03:31:32.299Z,18.00
2022-08-22T03:34:22.272Z,17.80
2022-08-22T03:37:18.953Z,17.80
2022-08-22T03:39:59.744Z,17.80
2022-08-22T03:42:44.262Z,17.70
2022-08-22T03:45:38.689Z,17.60
2022-08-22T03:48:38.649Z,17.50
2022-08-22T03:51:22.982Z,17.40
2022-08-22T03:54:21.728Z,17.60
2022-08-22T03:57:44.208Z,17.60
2022-08-22T04:00:46.083Z,17.80
2022-08-22T04:03:50.443Z,17.80
2022-08-22T04:06:49.297Z,17.70
2022-08-22T04:09:27.888Z,17.70
2022-08-22T04:12:17.484Z,17.60
2022-08-22T04:15:08.764Z,17.60
2022-08-22T04:18:06.740Z,17.40
2022-08-22T04:20:54.558Z,17.20
2022-08-22T04:23:46.620Z,17.10
2022-08-22T04:26:16.927Z,17.00
2022-08-22T04:28:57.113Z,17.00
2022-08-22T04:31:33.637Z,17.00
2022-08-22T04:34:37.601Z,17.10
2022-08-22T04:37:14.670Z,17.20
2022-08-22T04:39:59.877Z,17.10
2022-08-22T04:42:41.672Z,17.00
2022-08-22T04:45:22.605Z,17.00
2022-08-22T04:48:15.771Z,17.00
2022-08-22T04:51:03.189Z,17.00
2022-08-22T04:53:53.154Z,17.00
2022-08-22T04:57:01.300Z,17.10
2022-08-22T04:59:30.679Z,17.20
2022-08-22T05:02:06.680Z,17.40
2022-08-22T05:04:42.939Z,17.40
2022-08-22T05:07:22.908Z,17.40
2022-08-22T05:09:56.306Z,17.50
2022-08-22T05:12:31.779Z,17.60
2022-08-22T05:15:09.795Z,17.80
2022-08-22T05:17:38.438Z,17.90
2022-08-22T05:20:11.722Z,18.10
2022-08-22T05:22:46.863Z,18.30
2022-08-22T05:25:26.466Z,18.40
2022-08-22T05:28:04.078Z,18.40
2022-08-22T05:30:33.530Z,18.40
2022-08-22T05:33:03.175Z,18.30
2022-08-22T05:35:58.168Z,18.40
2022-08-22T05:38:31.079Z,18.60
2022-08-22T05:41:13.210Z,18.80
2022-08-22T05:43:43.064Z,18.90
2022-08-22T05:46:20.206Z,18.90
2022-08-22T05:48:58.496Z,19.00
2022-08-22T05:51:48.639Z,18.90
2022-08-22T05:54:21.034Z,18.90
2022-08-22T05:57:25.434Z,18.90
2022-08-22T06:00:12.813Z,19.00
2022-08-22T06:03:16.664Z,19.10
2022-08-22T06:05:49.802Z,19.20
2022-08-22T06:08:34.925Z,19.30
2022-08-22T06:11:12.571Z,19.30
2022-08-22T06:13:43.302Z,19.60
2022-08-22T06:16:20.951Z,19.70
2022-08-22T06:18:49.991Z,19.80
2022-08-22T06:21:39.167Z,19.70
2022-08-22T06:24:13.002Z,19.80
2022-08-22T06:26:48.596Z,19.90
2022-08-22T06:29:49.517Z,20.00
2022-08-22T06:32:47.066Z,20.10
2022-08-22T06:35:15.826Z,20.20
2022-08-22T06:37:46.065Z,20.40
2022-08-22T06:40:16.385Z,20.50
2022-08-22T06:42:46.981Z,20.70
2022-08-22T06:45:23.473Z,20.80
2022-08-22T06:48:11.826Z,20.90
2022-08-22T06:50:43.099Z,21.10
2022-08-22T06:53:19.979Z,21.30
2022-08-22T06:55:55.578Z,21.50
2022-08-22T06:58:33.883Z,21.60
2022-08-22T07:01:11.789Z,21.80
2022-08-22T07:03:44.468Z,21.90
2022-08-22T07:06:18.117Z,22.20
2022-08-22T07:08:45.386Z,22.40
2022-08-22T07:11:25.932Z,22.60
2022-08-22T07:14:03.034Z,22.80
2022-08-22T07:16:52.204Z,23.20
2022-08-22T07:19:32.262Z,23.60
2022-08-22T07:22:09.791Z,24.00
2022-08-22T07:24:36.919Z,24.00
2022-08-22T07:27:31.352Z,23.90
2022-08-22T07:30:10.248Z,23.80
2022-08-22T07:32:48.451Z,23.60
2022-08-22T07:35:20.364Z,23.40
2022-08-22T07:38:02.125Z,23.40
2022-08-22T07:40:31.859Z,23.70
2022-08-22T07:43:17.236Z,24.30
2022-08-22T07:45:55.581Z,24.80
2022-08-22T07:48:59.327Z,25.00
2022-08-22T07:51:59.113Z,25.20
2022-08-22T07:54:34.679Z,25.80
2022-08-22T07:57:33.674Z,26.10
2022-08-22T08:00:04.141Z,26.40
2022-08-22T08:02:30.990Z,26.50
2022-08-22T08:05:00.321Z,26.60
2022-08-22T08:07:29.132Z,26.50
2022-08-22T08:10:12.418Z,26.50
2022-08-22T08:12:44.264Z,26.80
2022-08-22T08:15:21.990Z,27.00
2022-08-22T08:17:54.665Z,27.20
2022-08-22T08:20:24.289Z,27.20
2022-08-22T08:22:52.743Z,26.80
2022-08-22T08:25:25.565Z,26.70
2022-08-22T08:28:11.274Z,26.30
2022-08-22T08:30:52.885Z,26.30
2022-08-22T08:33:26.099Z,26.30
2022-08-22T08:36:12.647Z,26.30
2022-08-22T08:38:49.342Z,26.60
2022-08-22T08:41:56.614Z,26.90
2022-08-22T08:45:04.626Z,27.10
2022-08-22T08:47:31.156Z,27.40
2022-08-22T08:50:17.978Z,27.40
2022-08-22T08:52:51.034Z,27.50
2022-08-22T08:55:37.213Z,27.60
2022-08-22T08:58:28.632Z,27.60
2022-08-22T09:01:20.023Z,27.70
2022-08-22T09:07:15.802Z,28.00
2022-08-22T09:10:18.837Z,27.40
2022-08-22T09:12:56.493Z,27.50
2022-08-22T09:16:05.335Z,27.50
2022-08-22T09:18:59.067Z,27.20
2022-08-22T09:22:03.945Z,27.10
2022-08-22T09:25:11.712Z,27.20
2022-08-22T09:27:48.010Z,27.30
2022-08-22T09:30:19.808Z,27.30
2022-08-22T09:33:01.149Z,27.50
2022-08-22T09:35:52.353Z,27.50
2022-08-22T09:38:23.461Z,27.50
2022-08-22T09:41:06.862Z,27.40
2022-08-22T09:44:04.488Z,27.60
2022-08-22T09:46:52.852Z,27.70
2022-08-22T09:49:32.694Z,27.80
2022-08-22T09:52:33.878Z,28.00
2022-08-22T09:55:11.721Z,28.10
2022-08-22T09:58:19.607Z,28.20
2022-08-22T10:01:03.820Z,28.40
2022-08-22T10:03:45.537Z,28.50
2022-08-22T10:06:20.290Z,28.80
2022-08-22T10:09:09.284Z,28.90
2022-08-22T10:12:03.511Z,29.00
2022-08-22T10:15:06.904Z,29.00
2022-08-22T10:17:47.038Z,29.10
2022-08-22T10:20:35.617Z,29.20
2022-08-22T10:23:35.449Z,29.30
2022-08-22T10:26:51.514Z,29.40
2022-08-22T10:29:39.772Z,29.50
2022-08-22T10:32:52.497Z,29.70
2022-08-22T10:35:33.915Z,29.80
2022-08-22T10:38:12.436Z,29.80
2022-08-22T10:40:49.849Z,29.80
2022-08-22T10:43:28.972Z,29.90
2022-08-22T10:46:12.517Z,30.00
2022-08-22T10:48:50.273Z,30.10
2022-08-22T10:51:55.152Z,30.10
2022-08-22T10:54:27.875Z,30.30
2022-08-22T10:57:07.324Z,30.30
2022-08-22T10:59:55.106Z,30.40
2022-08-22T11:02:53.923Z,30.70
2022-08-22T11:05:27.202Z,30.70
2022-08-22T11:08:19.214Z,31.00
2022-08-22T11:11:01.490Z,31.00
2022-08-22T11:13:46.532Z,31.30
2022-08-22T11:16:24.479Z,31.50
2022-08-22T11:19:16.089Z,31.60
2022-08-22T11:21:53.955Z,31.80
2022-08-22T11:25:00.231Z,32.00
2022-08-22T11:27:44.529Z,32.30
2022-08-22T11:30:26.496Z,32.50
2022-08-22T11:33:14.722Z,32.70
2022-08-22T11:35:56.128Z,32.70
2022-08-22T11:38:36.129Z,32.80
2022-08-22T11:41:26.498Z,33.00
2022-08-22T11:44:06.517Z,33.10
2022-08-22T11:46:49.353Z,33.30
2022-08-22T11:49:38.059Z,33.50
2022-08-22T11:52:23.487Z,33.60
2022-08-22T11:55:04.715Z,33.90
2022-08-22T11:57:38.094Z,34.00
2022-08-22T12:00:30.030Z,34.10
2022-08-22T12:03:19.444Z,34.10
2022-08-22T12:06:13.919Z,34.30
2022-08-22T12:09:09.669Z,33.80
2022-08-22T12:11:53.273Z,33.10
2022-08-22T12:14:36.049Z,32.50
2022-08-22T12:17:55.526Z,32.60
2022-08-22T12:20:52.390Z,32.90
2022-08-22T12:23:49.189Z,33.30
2022-08-22T12:26:19.162Z,33.40
2022-08-22T12:28:54.883Z,33.60
2022-08-22T12:31:57.079Z,33.50
2022-08-22T12:34:41.616Z,33.30
2022-08-22T12:37:25.146Z,33.00
2022-08-22T12:40:03.729Z,33.00
2022-08-22T12:42:46.925Z,33.10
2022-08-22T12:45:32.268Z,32.70
2022-08-22T12:48:36.461Z,32.80
2022-08-22T12:51:36.234Z,32.80
2022-08-22T12:54:08.745Z,32.80
2022-08-22T12:56:56.996Z,32.80
2022-08-22T12:59:35.374Z,32.80
2022-08-22T13:02:31.955Z,32.80
2022-08-22T13:05:13.582Z,32.80
2022-08-22T13:07:54.380Z,32.60
2022-08-22T13:10:51.959Z,32.70
2022-08-22T13:13:57.132Z,32.50
2022-08-22T13:16:26.119Z,32.30
2022-08-22T13:18:56.897Z,32.40
2022-08-22T13:21:31.383Z,32.40
2022-08-22T13:24:22.536Z,32.50
2022-08-22T13:26:59.439Z,32.60
2022-08-22T13:29:42.721Z,32.80
2022-08-22T13:32:23.448Z,33.00
2022-08-22T13:34:56.323Z,33.20
2022-08-22T13:37:28.675Z,33.20
2022-08-22T13:40:01.737Z,33.20
2022-08-22T13:42:31.833Z,33.30
2022-08-22T13:45:05.125Z,32.90
2022-08-22T13:47:35.790Z,32.60
2022-08-22T13:50:13.991Z,32.60
2022-08-22T13:52:49.264Z,32.70
2022-08-22T13:55:29.716Z,33.00
2022-08-22T13:58:18.626Z,33.30
2022-08-22T14:01:05.563Z,33.30
2022-08-22T14:03:40.857Z,33.30
2022-08-22T14:06:35.397Z,33.30
2022-08-22T14:09:31.253Z,33.00
2022-08-22T14:12:26.952Z,32.80
2022-08-22T14:15:01.846Z,32.60
2022-08-22T14:17:38.478Z,32.30
2022-08-22T14:20:32.449Z,32.30
2022-08-22T14:23:16.010Z,32.40
2022-08-22T14:25:43.708Z,32.50
2022-08-22T14:28:28.427Z,32.60
2022-08-22T14:31:13.709Z,32.80
2022-08-22T14:34:07.563Z,32.60
2022-08-22T14:36:53.095Z,32.40
2022-08-22T14:39:46.394Z,32.20
2022-08-22T14:42:18.700Z,32.20
2022-08-22T14:45:00.075Z,32.40
2022-08-22T14:47:55.510Z,32.50
2022-08-22T14:50:58.342Z,32.50
2022-08-22T14:53:28.802Z,32.60
2022-08-22T14:56:13.131Z,32.60
2022-08-22T14:59:08.748Z,32.60
2022-08-22T15:02:01.716Z,32.50
2022-08-22T15:04:43.284Z,32.40
2022-08-22T15:07:12.543Z,32.00
2022-08-22T15:10:02.973Z,31.80
2022-08-22T15:12:40.369Z,31.80
2022-08-22T15:15:32.493Z,31.90
2022-08-22T15:18:16.433Z,32.10
2022-08-22T15:20:45.384Z,32.20
2022-08-22T15:23:21.768Z,32.20
2022-08-22T15:26:03.719Z,32.30
2022-08-22T15:28:44.949Z,32.30
2022-08-22T15:31:20.514Z,32.20
2022-08-22T15:33:48.329Z,32.20
2022-08-22T15:36:27.177Z,32.30
2022-08-22T15:38:56.622Z,32.10
2022-08-22T15:41:32.178Z,32.00
2022-08-22T15:44:33.014Z,31.80
2022-08-22T15:47:32.878Z,31.80
2022-08-22T15:50:36.439Z,31.80
2022-08-22T15:53:23.842Z,31.80
2022-08-22T15:56:05.060Z,31.80
2022-08-22T15:58:37.056Z,31.70
2022-08-22T16:01:19.847Z,31.70
2022-08-22T16:03:59.441Z,31.70
2022-08-22T16:06:43.294Z,31.50
2022-08-22T16:09:53.021Z,31.50
2022-08-22T16:12:50.805Z,31.40
2022-08-22T16:15:51.517Z,31.30
2022-08-22T16:18:35.107Z,31.30
2022-08-22T16:21:03.757Z,31.20
2022-08-22T16:23:50.802Z,31.20
2022-08-22T16:26:22.991Z,31.10
2022-08-22T16:29:26.967Z,31.00
2022-08-22T16:31:55.925Z,30.90
2022-08-22T16:34:37.524Z,30.80
2022-08-22T16:37:22.655Z,30.70
2022-08-22T16:40:01.655Z,30.60
2022-08-22T16:42:36.216Z,30.30
2022-08-22T16:45:05.132Z,30.10
2022-08-22T16:47:40.664Z,29.90
2022-08-22T16:50:16.589Z,29.70
2022-08-22T16:52:52.206Z,29.60
2022-08-22T16:55:30.771Z,29.40
2022-08-22T16:58:06.384Z,29.30
2022-08-22T17:00:33.494Z,29.20
2022-08-22T17:03:14.878Z,29.20
2022-08-22T17:06:23.866Z,29.10
2022-08-22T17:09:27.990Z,29.10
2022-08-22T17:12:00.859Z,29.10
2022-08-22T17:14:43.137Z,29.00
2022-08-22T17:17:29.038Z,29.10
2022-08-22T17:20:27.818Z,29.10
2022-08-22T17:23:13.835Z,29.00
2022-08-22T17:25:49.555Z,29.10
2022-08-22T17:28:38.186Z,29.20
2022-08-22T17:31:24.071Z,29.20
2022-08-22T17:34:15.600Z,29.20
2022-08-22T17:36:56.862Z,29.20
2022-08-22T17:39:54.097Z,29.10
2022-08-22T17:42:59.933Z,29.10
2022-08-22T17:45:59.256Z,29.00
2022-08-22T17:48:40.528Z,29.00
2022-08-22T17:51:28.321Z,29.00
2022-08-22T17:54:02.171Z,28.90
2022-08-22T17:56:54.048Z,28.80
2022-08-22T17:59:56.211Z,28.70
2022-08-22T18:02:32.522Z,28.70
2022-08-22T18:05:17.462Z,28.60
2022-08-22T18:08:02.158Z,28.50
2022-08-22T18:11:03.570Z,28.40
2022-08-22T18:13:51.570Z,28.40
2022-08-22T18:16:29.464Z,28.30
2022-08-22T18:19:08.292Z,28.10
2022-08-22T18:21:48.132Z,28.00
2022-08-22T18:24:22.412Z,27.90
2022-08-22T18:26:58.357Z,27.90
2022-08-22T18:29:31.506Z,27.80
2022-08-22T18:32:13.360Z,27.70
2022-08-22T18:34:51.538Z,27.70
2022-08-22T18:37:31.022Z,27.60
2022-08-22T18:40:19.620Z,27.60
2022-08-22T18:43:14.314Z,27.60
2022-08-22T18:45:46.991Z,27.50
2022-08-22T18:48:26.869Z,27.50
2022-08-22T18:51:24.647Z,27.50
2022-08-22T18:54:06.892Z,27.40
2022-08-22T18:56:53.954Z,27.40
2022-08-22T18:59:54.498Z,27.40
2022-08-22T19:02:51.175Z,27.30
2022-08-22T19:05:40.865Z,27.20
2022-08-22T19:08:31.418Z,27.20
2022-08-22T19:11:12.517Z,27.00
2022-08-22T19:13:57.196Z,27.00
2022-08-22T19:16:57.306Z,26.90
2022-08-22T19:20:00.506Z,26.70
2022-08-22T19:22:31.784Z,26.70
2022-08-22T19:25:04.280Z,26.70
2022-08-22T19:27:34.261Z,26.60
2022-08-22T19:30:06.776Z,26.50
2022-08-22T19:32:59.209Z,26.50
2022-08-22T19:35:42.311Z,26.50
2022-08-22T19:38:10.422Z,26.40
2022-08-22T19:40:46.120Z,26.30
2022-08-22T19:43:34.114Z,26.10
2022-08-22T19:46:04.946Z,26.00
2022-08-22T19:48:47.380Z,26.00
2022-08-22T19:51:20.277Z,26.00
2022-08-22T19:54:02.748Z,25.90
2022-08-22T19:56:48.217Z,25.80
2022-08-22T19:59:40.207Z,25.70
2022-08-22T20:02:22.203Z,25.60
2022-08-22T20:05:06.191Z,25.50
2022-08-22T20:07:41.729Z,25.50
2022-08-22T20:10:14.047Z,25.40
2022-08-22T20:12:47.386Z,25.40
2022-08-22T20:15:22.487Z,25.30
2022-08-22T20:20:55.542Z,25.20
2022-08-22T20:23:29.675Z,24.90
2022-08-22T20:25:57.080Z,25.00
2022-08-22T20:28:59.566Z,24.80
2022-08-22T20:31:27.045Z,24.80
2022-08-22T20:34:01.106Z,24.60
2022-08-22T20:36:29.333Z,24.60
2022-08-22T20:39:19.537Z,24.50
2022-08-22T20:42:07.986Z,24.50
2022-08-22T20:44:34.514Z,24.40
2022-08-22T20:47:11.091Z,24.40
2022-08-22T20:49:41.465Z,24.50
2022-08-22T20:52:20.178Z,24.60
2022-08-22T20:55:17.968Z,24.50
2022-08-22T20:57:55.018Z,24.40
2022-08-22T21:00:43.755Z,24.50
2022-08-22T21:03:22.176Z,24.60
2022-08-22T21:05:48.820Z,24.60
2022-08-22T21:08:24.623Z,24.60
2022-08-22T21:11:17.025Z,24.60
2022-08-22T21:13:43.663Z,24.60
2022-08-22T21:16:15.521Z,24.60
2022-08-22T21:18:46.147Z,24.70
2022-08-22T21:21:27.228Z,24.70
2022-08-22T21:24:00.544Z,24.70
2022-08-22T21:26:45.224Z,24.70
2022-08-22T21:29:14.622Z,24.80
2022-08-22T21:31:59.069Z,24.70
2022-08-22T21:34:41.537Z,24.70
2022-08-22T21:37:26.618Z,24.60
2022-08-22T21:40:15.127Z,24.70
2022-08-22T21:42:45.634Z,24.70
2022-08-22T21:45:40.893Z,24.70
2022-08-22T21:48:30.650Z,24.70
2022-08-22T21:51:17.195Z,24.70
2022-08-22T21:53:43.776Z,24.60
2022-08-22T21:56:26.795Z,24.60
2022-08-22T21:59:25.190Z,24.60
2022-08-22T22:01:53.489Z,24.60
2022-08-22T22:04:22.447Z,24.60
2022-08-22T22:06:49.214Z,24.50
2022-08-22T22:09:15.809Z,24.50
2022-08-22T22:11:42.478Z,24.50
2022-08-22T22:14:09.137Z,24.40
2022-08-22T22:16:35.754Z,24.40
2022-08-22T22:19:02.515Z,24.40
2022-08-22T22:21:29.183Z,24.40
2022-08-22T22:23:58.478Z,24.40
2022-08-22T22:26:25.883Z,24.40
2022-08-22T22:28:53.034Z,24.40
2022-08-22T22:31:19.650Z,24.30
2022-08-22T22:33:46.555Z,24.40
2022-08-22T22:36:18.077Z,24.30
2022-08-22T22:38:45.318Z,24.30
2022-08-22T22:41:12.818Z,24.20
2022-08-22T22:43:39.473Z,24.10
2022-08-22T22:46:06.539Z,24.10
2022-08-22T22:48:33.490Z,24.00
2022-08-22T22:51:07.390Z,24.00
2022-08-22T22:53:42.887Z,24.00
2022-08-22T22:56:22.678Z,24.00
2022-08-22T22:58:59.240Z,23.90
2022-08-22T23:01:27.866Z,23.80
2022-08-22T23:04:01.198Z,23.80
2022-08-22T23:06:32.676Z,23.80
2022-08-22T23:08:59.435Z,23.60
2022-08-22T23:11:29.936Z,23.60
2022-08-22T23:13:56.842Z,23.60
2022-08-22T23:16:27.813Z,23.60
2022-08-22T23:18:55.532Z,23.60
2022-08-22T23:21:30.647Z,23.50
2022-08-22T23:23:59.284Z,23.40
2022-08-22T23:26:26.416Z,23.20
2022-08-22T23:28:53.080Z,23.10
2022-08-22T23:31:41.447Z,23.10
2022-08-22T23:34:12.922Z,23.10
2022-08-22T23:36:42.547Z,23.00
2022-08-22T23:39:09.791Z,23.00
2022-08-22T23:41:37.554Z,22.80
2022-08-22T23:44:06.086Z,22.70
2022-08-22T23:46:33.100Z,22.70
2022-08-22T23:49:02.103Z,22.60
2022-08-22T23:51:29.108Z,22.60
2022-08-22T23:53:57.674Z,22.60
2022-08-22T23:56:35.507Z,22.50
2022-08-22T23:59:05.630Z,22.40
